createdAt,value
2022-10-09T00:04:11.431Z,2.25
2022-10-09T00:09:27.457Z,2.25
2022-10-09T00:14:43.131Z,1.83
2022-10-09T00:19:58.153Z,2.00
2022-10-09T00:25:13.132Z,2.38
2022-10-09T00:30:27.994Z,2.13
2022-10-09T00:35:43.190Z,1.70
2022-10-09T00:40:58.184Z,1.90
2022-10-09T00:46:13.220Z,2.13
2022-10-09T00:51:28.126Z,2.00
2022-10-09T00:56:43.134Z,1.92
2022-10-09T01:01:58.361Z,2.00
2022-10-09T01:07:14.418Z,1.67
2022-10-09T01:12:30.233Z,1.75
2022-10-09T01:17:45.173Z,1.90
2022-10-09T01:23:00.459Z,1.73
2022-10-09T01:28:16.203Z,1.75
2022-10-09T01:33:31.168Z,2.28
2022-10-09T01:38:46.113Z,1.80
2022-10-09T01:44:01.121Z,1.67
2022-10-09T01:49:16.142Z,2.03
2022-10-09T01:54:31.398Z,2.08
2022-10-09T01:59:47.386Z,1.98
2022-10-09T02:05:03.113Z,1.48
2022-10-09T02:10:18.113Z,3.10
2022-10-09T02:15:33.203Z,1.60
2022-10-09T02:20:48.172Z,1.80
2022-10-09T02:26:03.213Z,1.63
2022-10-09T02:31:18.198Z,2.05
2022-10-09T02:36:33.476Z,1.50
2022-10-09T02:41:49.441Z,1.58
2022-10-09T02:47:05.127Z,1.50
2022-10-09T02:52:20.220Z,1.20
2022-10-09T02:57:35.120Z,1.70
2022-10-09T03:02:50.442Z,2.00
2022-10-09T03:08:06.153Z,2.05
2022-10-09T03:13:21.189Z,1.65
2022-10-09T03:18:36.420Z,1.52
2022-10-09T03:23:52.172Z,1.55
2022-10-09T03:29:07.465Z,1.60
2022-10-09T03:34:23.141Z,1.33
2022-10-09T03:39:38.147Z,1.40
2022-10-09T03:44:53.184Z,2.25
2022-10-09T03:50:08.450Z,1.98
2022-10-09T03:55:24.130Z,1.50
2022-10-09T04:00:39.469Z,1.67
2022-10-09T04:05:55.192Z,1.90
2022-10-09T04:11:10.176Z,1.70
2022-10-09T04:16:25.560Z,1.42
2022-10-09T04:21:41.163Z,1.92
2022-10-09T04:26:56.486Z,1.60
2022-10-09T04:32:12.124Z,2.28
2022-10-09T04:37:27.571Z,2.20
2022-10-09T04:42:43.193Z,1.65
2022-10-09T04:47:58.149Z,2.05
2022-10-09T04:53:13.476Z,1.55
2022-10-09T04:58:29.143Z,1.80
2022-10-09T05:03:44.203Z,2.25
2022-10-09T05:08:59.460Z,1.88
2022-10-09T05:14:14.910Z,1.33
2022-10-09T05:19:29.947Z,1.75
2022-10-09T05:24:45.474Z,1.70
2022-10-09T05:30:01.199Z,1.50
2022-10-09T05:35:16.484Z,1.42
2022-10-09T05:40:32.240Z,1.60
2022-10-09T05:45:47.501Z,1.45
2022-10-09T05:51:02.906Z,1.38
2022-10-09T05:56:18.192Z,1.67
2022-10-09T06:01:33.262Z,1.83
2022-10-09T06:06:48.179Z,1.92
2022-10-09T06:12:03.141Z,1.45
2022-10-09T06:17:18.177Z,2.00
2022-10-09T06:22:33.145Z,1.63
2022-10-09T06:27:48.172Z,1.77
2022-10-09T06:33:03.490Z,2.20
2022-10-09T06:38:19.202Z,1.65
2022-10-09T06:43:34.136Z,2.80
2022-10-09T06:48:49.178Z,1.48
2022-10-09T06:54:04.672Z,1.70
2022-10-09T06:59:20.441Z,1.77
2022-10-09T07:04:36.187Z,1.90
2022-10-09T07:09:51.153Z,1.65
2022-10-09T07:15:06.203Z,2.47
2022-10-09T07:20:21.554Z,3.72
2022-10-09T07:25:37.472Z,4.72
2022-10-09T07:30:53.241Z,4.57
2022-10-09T07:36:08.218Z,3.92
2022-10-09T07:41:23.223Z,3.45
2022-10-09T07:46:38.241Z,2.70
2022-10-09T07:51:53.466Z,2.55
2022-10-09T07:57:10.291Z,2.10
2022-10-09T08:02:25.976Z,1.77
2022-10-09T08:07:41.160Z,2.13
2022-10-09T08:12:56.168Z,2.63
2022-10-09T08:18:11.170Z,5.65
2022-10-09T08:23:26.183Z,11.20
2022-10-09T08:28:41.639Z,7.72
2022-10-09T08:33:57.183Z,7.78
2022-10-09T08:39:12.203Z,5.63
2022-10-09T08:44:27.201Z,5.50
2022-10-09T08:49:42.240Z,4.38
2022-10-09T08:55:35.177Z,5.22
2022-10-09T09:00:50.387Z,5.43
2022-10-09T09:06:06.468Z,5.28
2022-10-09T09:11:23.190Z,3.90
2022-10-09T09:16:38.507Z,4.70
2022-10-09T09:21:54.186Z,4.65
2022-10-09T09:27:09.222Z,3.05
2022-10-09T09:32:24.527Z,3.60
2022-10-09T09:37:40.175Z,3.75
2022-10-09T09:42:55.180Z,3.05
2022-10-09T09:48:10.178Z,3.78
2022-10-09T09:53:25.226Z,3.25
2022-10-09T09:58:40.194Z,2.75
2022-10-09T10:03:55.239Z,3.28
2022-10-09T10:09:10.530Z,3.83
2022-10-09T10:14:26.201Z,2.58
2022-10-09T10:19:41.459Z,3.08
2022-10-09T10:24:57.506Z,2.75
2022-10-09T10:30:13.163Z,2.92
2022-10-09T10:35:28.181Z,2.03
2022-10-09T10:40:42.942Z,2.72
2022-10-09T10:45:58.151Z,2.25
2022-10-09T10:51:13.215Z,3.22
2022-10-09T10:56:28.185Z,2.50
2022-10-09T11:01:43.175Z,2.55
2022-10-09T11:06:58.398Z,2.10
2022-10-09T11:12:19.866Z,1.83
2022-10-09T11:17:49.482Z,2.15
2022-10-09T11:23:05.173Z,2.33
2022-10-09T11:28:20.285Z,1.98
2022-10-09T11:33:35.188Z,2.50
2022-10-09T11:38:50.210Z,2.22
2022-10-09T11:44:05.474Z,1.52
2022-10-09T11:49:21.155Z,1.95
2022-10-09T11:54:36.205Z,2.10
2022-10-09T11:59:51.231Z,1.30
2022-10-09T12:05:06.247Z,1.27
2022-10-09T12:10:21.189Z,1.35
2022-10-09T12:15:36.513Z,1.23
2022-10-09T12:20:52.522Z,1.67
2022-10-09T12:26:08.568Z,1.38
2022-10-09T12:31:24.225Z,1.90
2022-10-09T12:36:39.190Z,1.40
2022-10-09T12:41:53.987Z,1.50
2022-10-09T12:47:09.244Z,1.40
2022-10-09T12:52:24.510Z,1.48
2022-10-09T12:57:40.486Z,1.42
2022-10-09T13:02:56.588Z,1.77
2022-10-09T13:08:12.212Z,1.30
2022-10-09T13:13:27.311Z,1.20
2022-10-09T13:18:42.263Z,1.30
2022-10-09T13:23:57.219Z,1.08
2022-10-09T13:29:12.233Z,1.42
2022-10-09T13:34:27.489Z,1.52
2022-10-09T13:39:43.210Z,1.90
2022-10-09T13:44:58.616Z,1.25
2022-10-09T13:50:13.978Z,1.33
2022-10-09T13:55:29.215Z,1.33
2022-10-09T14:00:44.216Z,1.20
2022-10-09T14:05:59.201Z,2.13
2022-10-09T14:11:14.847Z,1.17
2022-10-09T14:16:30.198Z,0.98
2022-10-09T14:21:45.233Z,1.10
2022-10-09T14:27:00.261Z,1.08
2022-10-09T14:32:15.216Z,1.20
2022-10-09T14:37:40.957Z,1.00
2022-10-09T14:42:57.207Z,1.35
2022-10-09T14:48:12.198Z,1.73
2022-10-09T14:53:27.227Z,1.15
2022-10-09T14:58:42.280Z,1.20
2022-10-09T15:03:57.276Z,1.67
2022-10-09T15:09:12.215Z,1.20
2022-10-09T15:14:27.599Z,1.65
2022-10-09T15:19:43.259Z,1.58
2022-10-09T15:24:58.200Z,1.63
2022-10-09T15:30:13.206Z,1.15
2022-10-09T15:35:28.520Z,1.40
2022-10-09T15:40:44.203Z,1.50
2022-10-09T15:45:59.590Z,1.58
2022-10-09T15:51:14.962Z,1.58
2022-10-09T15:56:30.201Z,1.17
2022-10-09T16:01:45.225Z,1.35
2022-10-09T16:07:00.216Z,1.55
2022-10-09T16:12:15.325Z,1.40
2022-10-09T16:17:30.219Z,1.40
2022-10-09T16:22:45.281Z,2.00
2022-10-09T16:28:00.362Z,1.10
2022-10-09T16:33:15.238Z,1.27
2022-10-09T16:38:30.534Z,1.85
2022-10-09T16:43:46.248Z,2.53
2022-10-09T16:49:01.210Z,2.40
2022-10-09T16:54:16.213Z,2.03
2022-10-09T16:59:31.213Z,2.00
2022-10-09T17:04:47.318Z,2.17
2022-10-09T17:10:02.528Z,1.92
2022-10-09T17:15:18.244Z,2.10
2022-10-09T17:20:33.264Z,1.58
2022-10-09T17:25:48.221Z,1.65
2022-10-09T17:31:03.651Z,2.67
2022-10-09T17:36:19.246Z,1.35
2022-10-09T17:41:34.263Z,1.65
2022-10-09T17:46:49.202Z,1.70
2022-10-09T17:52:04.043Z,1.67
2022-10-09T17:57:19.201Z,1.75
2022-10-09T18:02:34.222Z,1.67
2022-10-09T18:07:49.404Z,1.40
2022-10-09T18:13:05.539Z,1.33
2022-10-09T18:18:21.238Z,1.92
2022-10-09T18:23:36.285Z,1.67
2022-10-09T18:28:51.534Z,1.65
2022-10-09T18:34:06.248Z,1.40
2022-10-09T18:39:21.289Z,1.60
2022-10-09T18:44:36.234Z,1.17
2022-10-09T18:49:51.299Z,1.35
2022-10-09T18:55:06.561Z,1.63
2022-10-09T19:00:22.578Z,1.42
2022-10-09T19:05:37.980Z,1.63
2022-10-09T19:10:53.234Z,1.63
2022-10-09T19:16:08.253Z,1.65
2022-10-09T19:21:23.255Z,1.40
2022-10-09T19:26:38.584Z,2.10
2022-10-09T19:31:54.240Z,1.52
2022-10-09T19:37:09.207Z,1.65
2022-10-09T19:42:24.809Z,1.77
2022-10-09T19:47:41.281Z,1.75
2022-10-09T19:52:56.234Z,1.33
2022-10-09T19:58:11.222Z,2.28
2022-10-09T20:03:26.539Z,2.03
2022-10-09T20:08:42.222Z,1.83
2022-10-09T20:13:57.237Z,1.25
2022-10-09T20:19:12.234Z,1.80
2022-10-09T20:24:27.315Z,1.75
2022-10-09T20:29:42.578Z,1.45
2022-10-09T20:34:58.569Z,1.70
2022-10-09T20:40:14.531Z,1.38
2022-10-09T20:45:30.563Z,1.70
2022-10-09T20:50:46.226Z,1.50
2022-10-09T20:56:01.186Z,1.33
2022-10-09T21:01:16.351Z,1.58
2022-10-09T21:06:31.315Z,1.60
2022-10-09T21:11:46.225Z,1.38
2022-10-09T21:17:01.263Z,1.35
2022-10-09T21:22:16.231Z,1.52
2022-10-09T21:27:31.277Z,1.65
2022-10-09T21:32:46.222Z,1.55
2022-10-09T21:38:02.021Z,1.90
2022-10-09T21:43:18.251Z,1.33
2022-10-09T21:48:33.643Z,1.77
2022-10-09T21:53:49.485Z,1.55
2022-10-09T21:59:05.603Z,1.88
2022-10-09T22:04:21.265Z,1.60
2022-10-09T22:09:36.236Z,1.73
2022-10-09T22:14:51.002Z,2.00
2022-10-09T22:20:06.527Z,1.55
2022-10-09T22:25:22.303Z,1.35
2022-10-09T22:30:37.282Z,1.58
2022-10-09T22:35:52.211Z,1.60
2022-10-09T22:41:07.287Z,1.70
2022-10-09T22:46:22.247Z,1.63
2022-10-09T22:51:37.228Z,1.50
2022-10-09T22:56:52.358Z,1.83
2022-10-09T23:02:07.408Z,1.20
2022-10-09T23:07:22.262Z,1.30
2022-10-09T23:12:37.313Z,1.30
2022-10-09T23:17:52.237Z,1.92
2022-10-09T23:23:07.077Z,1.58
2022-10-09T23:28:22.576Z,1.52
2022-10-09T23:33:38.578Z,2.03
2022-10-09T23:38:54.538Z,1.50
2022-10-09T23:44:10.265Z,1.50
2022-10-09T23:49:25.080Z,1.63
2022-10-09T23:54:40.342Z,1.80
2022-10-09T23:59:55.631Z,1.63
